Time;durP1;ratioP1;P1;durP2;ratioP2;P2;SDS_P1;SDS_P2;PMS_P1;PMS_P2;Temp;Humidity;BMP_temperature;BMP_pressure;BME280_temperature;BME280_humidity;BME280_pressure;Samples;Min_cycle;Max_cycle;Signal;HPM_P1;HPM_P2
2023/04/28 00:02:52;;;;;;;18.63;10.13;;;;;;;7.43;100.00;101075.38;5072321;28;20548;-72
2023/04/28 00:05:18;;;;;;;15.38;9.55;;;;;;;7.15;100.00;101076.06;5054091;28;20052;-72
2023/04/28 00:07:45;;;;;;;15.48;9.85;;;;;;;6.98;100.00;101071.97;5053542;28;20095;-72
2023/04/28 00:10:11;;;;;;;18.75;9.80;;;;;;;6.88;100.00;101067.94;5072132;28;20021;-72
2023/04/28 00:12:36;;;;;;;19.23;9.82;;;;;;;6.91;100.00;101068.38;5054933;28;20110;-72
2023/04/28 00:18:23;;;;;;;17.90;10.35;;;;;;;6.78;100.00;101054.94;5075059;28;20547;-73
2023/04/28 00:20:49;;;;;;;19.88;11.48;;;;;;;6.77;100.00;101063.91;5075235;28;20033;-73
2023/04/28 00:23:14;;;;;;;20.40;11.07;;;;;;;6.68;100.00;101063.19;5075548;28;20040;-73
2023/04/28 00:25:40;;;;;;;18.35;11.57;;;;;;;6.52;100.00;101048.25;5074712;28;20041;-73
2023/04/28 00:28:07;;;;;;;19.17;10.80;;;;;;;6.58;100.00;101049.34;5057154;28;20052;-73
2023/04/28 00:30:32;;;;;;;20.60;11.60;;;;;;;6.52;100.00;101040.28;5056524;28;20102;-73
2023/04/28 00:32:57;;;;;;;18.95;10.45;;;;;;;6.58;100.00;101044.03;5075028;28;20040;-73
2023/04/28 00:35:22;;;;;;;18.88;11.50;;;;;;;6.38;100.00;101009.22;5075511;28;20469;-73
2023/04/28 00:37:48;;;;;;;19.17;10.90;;;;;;;6.47;100.00;101024.06;5074520;28;20049;-74
2023/04/28 00:40:13;;;;;;;22.58;11.88;;;;;;;6.39;100.00;101023.34;5075052;28;20432;-74
2023/04/28 00:42:39;;;;;;;23.10;12.18;;;;;;;6.37;100.00;101015.53;5075303;28;20036;-74
2023/04/28 00:45:06;;;;;;;23.65;13.25;;;;;;;6.41;100.00;101026.63;5074392;28;20048;-74
2023/04/28 00:47:35;;;;;;;21.90;11.80;;;;;;;6.39;100.00;101020.69;5057121;28;20024;-74
2023/04/28 00:50:02;;;;;;;22.92;13.10;;;;;;;6.32;100.00;101017.06;5074335;28;20098;-74
2023/04/28 00:52:28;;;;;;;21.00;13.13;;;;;;;6.29;100.00;101012.13;5074864;28;20033;-74
2023/04/28 00:58:15;;;;;;;23.08;12.55;;;;;;;6.27;100.00;100998.22;5075326;28;20059;-74
2023/04/28 01:00:42;;;;;;;26.55;12.57;;;;;;;6.36;100.00;101010.38;5075119;28;20036;-74
2023/04/28 01:03:08;;;;;;;22.73;12.82;;;;;;;6.27;100.00;100993.72;5073988;28;20044;-75
2023/04/28 01:05:35;;;;;;;22.15;12.57;;;;;;;6.33;100.00;101008.94;5056864;28;20539;-74
2023/04/28 01:08:02;;;;;;;23.65;13.77;;;;;;;6.21;100.00;100994.47;5074293;28;20072;-75
2023/04/28 01:10:27;;;;;;;26.17;14.65;;;;;;;6.24;100.00;100995.94;5075055;28;20024;-75
2023/04/28 01:12:52;;;;;;;23.70;14.05;;;;;;;6.22;100.00;100996.94;5040042;28;20106;-75
2023/04/28 01:15:19;;;;;;;27.27;14.27;;;;;;;6.22;100.00;100998.75;5074041;28;20044;-75
2023/04/28 01:17:46;;;;;;;22.88;12.90;;;;;;;6.14;100.00;100978.44;5056900;28;20028;-75
2023/04/28 01:20:12;;;;;;;22.23;13.10;;;;;;;6.23;100.00;100987.13;5074207;28;20056;-75
2023/04/28 01:22:37;;;;;;;21.88;12.98;;;;;;;6.01;100.00;100943.72;5074572;28;20072;-74
2023/04/28 01:28:25;;;;;;;23.80;12.55;;;;;;;5.93;100.00;100930.53;5075053;28;20043;-75
2023/04/28 01:30:50;;;;;;;25.30;14.32;;;;;;;5.96;100.00;100946.09;5074422;28;20464;-75
2023/04/28 01:33:16;;;;;;;27.08;14.45;;;;;;;6.02;100.00;100957.81;5055960;28;20051;-75
2023/04/28 01:35:42;;;;;;;22.98;12.32;;;;;;;5.96;100.00;100958.53;5056489;28;20067;-74
2023/04/28 01:41:29;;;;;;;25.80;13.32;;;;;;;5.88;100.00;100941.69;5074898;28;20043;-75
2023/04/28 01:43:55;;;;;;;26.10;13.75;;;;;;;5.85;100.00;100947.34;5056346;28;20028;-75
2023/04/28 01:46:20;;;;;;;22.52;12.90;;;;;;;5.82;100.00;100945.06;5055734;28;20041;-74
2023/04/28 01:48:46;;;;;;;24.38;13.40;;;;;;;5.66;100.00;100915.19;5074395;28;20523;-75
2023/04/28 01:51:12;;;;;;;27.85;14.23;;;;;;;5.83;100.00;100935.25;5073740;28;20056;-75
2023/04/28 01:53:41;;;;;;;25.05;14.07;;;;;;;5.71;100.00;100918.94;5055993;28;20036;-74
2023/04/28 01:56:06;;;;;;;23.33;13.45;;;;;;;5.82;100.00;100934.44;5074105;28;20032;-76
2023/04/28 01:58:31;;;;;;;25.13;12.77;;;;;;;5.85;100.00;100943.88;5055834;28;20127;-73
2023/04/28 02:00:57;;;;;;;28.50;14.27;;;;;;;5.88;100.00;100943.50;5074121;28;20129;-73
2023/04/28 02:03:23;;;;;;;25.27;13.75;;;;;;;5.86;100.00;100945.50;5056078;28;20045;-73
2023/04/28 02:05:49;;;;;;;26.38;14.93;;;;;;;5.81;100.00;100940.75;5073050;28;20040;-73
2023/04/28 02:08:14;;;;;;;25.88;14.38;;;;;;;5.78;100.00;100934.97;5056168;28;20020;-73
2023/04/28 02:10:40;;;;;;;28.38;15.18;;;;;;;5.84;100.00;100939.56;5073071;28;20049;-72
2023/04/28 02:13:06;;;;;;;28.85;15.60;;;;;;;5.82;100.00;100936.28;5074293;28;20414;-74
2023/04/28 02:18:53;;;;;;;24.55;14.90;;;;;;;5.79;100.00;100928.69;5073948;28;20050;-73
2023/04/28 02:21:18;;;;;;;29.48;14.95;;;;;;;5.79;100.00;100929.50;5073848;28;20115;-73
2023/04/28 02:23:44;;;;;;;27.83;15.07;;;;;;;5.84;100.00;100931.59;5072855;28;20123;-73
2023/04/28 02:26:09;;;;;;;24.13;13.23;;;;;;;5.82;100.00;100907.91;5073669;28;20337;-73
2023/04/28 02:28:36;;;;;;;27.25;14.65;;;;;;;5.75;100.00;100895.53;5073570;28;20036;-73
2023/04/28 02:31:09;;;;;;;25.52;14.88;;;;;;;5.79;100.00;100895.00;5072913;28;20036;-73
2023/04/28 02:33:35;;;;;;;24.27;13.63;;;;;;;5.85;100.00;100885.50;5073445;28;20384;-74
2023/04/28 02:36:02;;;;;;;27.95;14.60;;;;;;;5.77;100.00;100881.06;5072766;28;20052;-73
2023/04/28 02:41:49;;;;;;;27.80;15.25;;;;;;;5.98;100.00;100861.81;5073401;28;20075;-73
2023/04/28 02:44:15;;;;;;;32.67;17.85;;;;;;;5.97;100.00;100862.00;5073224;28;20060;-73
2023/04/28 02:46:40;;;;;;;27.77;15.93;;;;;;;5.95;100.00;100861.34;5055216;28;20033;-73
2023/04/28 02:49:06;;;;;;;27.13;15.05;;;;;;;5.81;100.00;100836.47;5054793;28;20039;-73
2023/04/28 02:51:32;;;;;;;30.42;17.08;;;;;;;5.89;100.00;100849.63;5073111;28;20032;-73
2023/04/28 02:53:57;;;;;;;25.25;14.20;;;;;;;5.82;100.00;100832.78;5055123;28;20493;-74
2023/04/28 02:56:22;;;;;;;26.23;14.48;;;;;;;5.86;100.00;100834.91;5054797;28;20447;-73
2023/04/28 02:58:47;;;;;;;26.38;14.80;;;;;;;6.00;100.00;100851.00;5055228;28;20036;-73
2023/04/28 03:01:13;;;;;;;28.60;16.57;;;;;;;5.97;100.00;100841.59;5072193;28;20049;-73
2023/04/28 03:03:39;;;;;;;25.67;15.32;;;;;;;5.88;100.00;100827.56;5073265;28;20370;-73
2023/04/28 03:06:04;;;;;;;28.10;15.65;;;;;;;6.06;100.00;100856.41;5073015;28;20020;-73
2023/04/28 03:08:30;;;;;;;30.88;16.25;;;;;;;6.12;100.00;100858.34;5054532;28;20049;-73
2023/04/28 03:10:55;;;;;;;29.30;15.35;;;;;;;6.03;100.00;100827.56;5072985;28;20146;-73
2023/04/28 03:13:20;;;;;;;21.67;13.93;;;;;;;5.97;100.00;100820.34;5071867;28;21616;-73
2023/04/28 03:15:46;;;;;;;28.63;16.60;;;;;;;6.17;100.00;100825.94;5072947;28;20040;-73
2023/04/28 03:18:11;;;;;;;29.08;17.40;;;;;;;5.90;100.00;100772.50;5072631;28;20112;-73
2023/04/28 03:20:36;;;;;;;28.55;17.02;;;;;;;6.32;100.00;100829.38;5072006;28;20036;-73
2023/04/28 03:23:02;;;;;;;27.52;16.17;;;;;;;6.21;100.00;100816.56;5072722;28;20079;-73
2023/04/28 03:25:28;;;;;;;29.77;15.77;;;;;;;6.33;100.00;100825.69;5072974;28;20031;-73
2023/04/28 03:27:53;;;;;;;29.05;15.77;;;;;;;6.33;100.00;100824.88;5071660;28;20396;-73
2023/04/28 03:30:18;;;;;;;31.55;16.33;;;;;;;6.48;100.00;100847.75;5072785;28;20104;-73
2023/04/28 03:32:44;;;;;;;29.98;17.27;;;;;;;6.39;100.00;100830.28;5054260;28;20118;-73
2023/04/28 03:35:09;;;;;;;31.52;18.02;;;;;;;6.59;100.00;100850.91;5072484;28;20040;-74
2023/04/28 03:37:35;;;;;;;29.27;16.48;;;;;;;6.56;100.00;100846.81;5054453;28;20031;-73
2023/04/28 03:40:00;;;;;;;32.03;16.05;;;;;;;6.66;100.00;100839.38;5054148;28;20166;-73
2023/04/28 03:42:26;;;;;;;29.42;17.52;;;;;;;6.52;100.00;100816.31;5072289;28;20021;-73
2023/04/28 03:44:51;;;;;;;29.50;18.15;;;;;;;6.67;100.00;100840.19;5053692;28;20108;-74
2023/04/28 03:47:16;;;;;;;29.30;16.40;;;;;;;6.76;100.00;100841.72;5053970;28;20090;-74
2023/04/28 03:49:42;;;;;;;29.38;15.50;;;;;;;6.66;100.00;100825.25;5072361;28;20038;-74
2023/04/28 03:55:29;;;;;;;33.42;17.42;;;;;;;6.68;100.00;100825.91;5072536;28;20055;-74
2023/04/28 03:57:54;;;;;;;33.20;17.92;;;;;;;6.74;100.00;100825.13;5071577;28;20044;-74
2023/04/28 04:00:19;;;;;;;30.20;17.30;;;;;;;6.69;100.00;100816.91;5054591;28;20035;-74
2023/04/28 04:02:45;;;;;;;31.50;18.58;;;;;;;6.78;100.00;100826.41;5054209;28;20374;-74
2023/04/28 04:05:11;;;;;;;32.28;18.45;;;;;;;6.78;100.00;100826.41;5071406;28;20064;-74
2023/04/28 04:07:36;;;;;;;32.22;18.90;;;;;;;6.70;100.00;100800.78;5054078;28;20032;-74
2023/04/28 04:10:01;;;;;;;31.05;17.10;;;;;;;6.60;100.00;100781.66;5071636;28;20511;-74
2023/04/28 04:12:27;;;;;;;28.95;18.35;;;;;;;6.70;100.00;100784.84;5054182;28;20055;-74
2023/04/28 04:14:52;;;;;;;29.77;18.70;;;;;;;6.80;100.00;100792.47;5071871;28;20119;-74
2023/04/28 04:17:18;;;;;;;31.17;18.67;;;;;;;6.83;100.00;100792.09;5071082;28;20048;-73
2023/04/28 04:19:43;;;;;;;37.35;19.75;;;;;;;6.92;100.00;100804.22;5072281;28;20028;-74
2023/04/28 04:22:08;;;;;;;31.63;16.85;;;;;;;6.96;100.00;100808.19;5071872;28;20025;-74
2023/04/28 04:24:34;;;;;;;30.58;17.02;;;;;;;7.02;100.00;100820.69;5071292;28;20048;-74
2023/04/28 04:26:59;;;;;;;27.55;16.92;;;;;;;7.01;100.00;100813.75;5071787;28;20109;-74
2023/04/28 04:29:24;;;;;;;29.83;18.55;;;;;;;6.97;100.00;100812.47;5070810;28;20099;-73
2023/04/28 04:31:50;;;;;;;34.03;18.13;;;;;;;7.08;100.00;100822.59;5071743;28;20046;-73
2023/04/28 04:34:15;;;;;;;29.33;17.98;;;;;;;7.03;100.00;100809.06;5053618;28;20116;-74
2023/04/28 04:36:40;;;;;;;38.75;18.77;;;;;;;6.90;100.00;100781.53;5070713;28;20056;-74
2023/04/28 04:42:28;;;;;;;29.67;18.92;;;;;;;7.14;100.00;100795.22;5071811;28;20055;-74
2023/04/28 04:44:54;;;;;;;34.45;19.67;;;;;;;7.14;100.00;100795.22;5053603;28;20036;-74
2023/04/28 04:47:19;;;;;;;30.90;19.63;;;;;;;7.14;100.00;100779.28;5071762;28;20517;-73
2023/04/28 04:49:44;;;;;;;36.00;20.35;;;;;;;7.17;100.00;100780.72;5053097;28;20366;-74
2023/04/28 04:52:09;;;;;;;30.48;18.00;;;;;;;7.21;100.00;100789.13;5071532;28;20048;-74
2023/04/28 04:54:35;;;;;;;31.15;19.15;;;;;;;7.10;100.00;100759.41;5070851;28;20076;-74
2023/04/28 04:57:01;;;;;;;32.85;19.90;;;;;;;7.12;100.00;100762.69;5071758;28;20029;-74
2023/04/28 04:59:27;;;;;;;29.92;20.10;;;;;;;7.29;100.00;100789.81;5072742;28;20047;-74
2023/04/28 05:01:52;;;;;;;35.10;20.58;;;;;;;7.33;100.00;100780.44;5074332;28;20036;-74
2023/04/28 05:04:17;;;;;;;31.45;19.75;;;;;;;7.40;100.00;100780.47;5074911;28;20441;-74
2023/04/28 05:06:43;;;;;;;34.60;20.50;;;;;;;7.33;100.00;100761.81;5056277;28;20246;-73
2023/04/28 05:09:08;;;;;;;34.00;22.02;;;;;;;7.27;100.00;100746.66;5074805;28;20059;-74
2023/04/28 05:11:33;;;;;;;38.28;20.45;;;;;;;7.37;100.00;100747.13;5074653;28;20476;-74
2023/04/28 05:13:59;;;;;;;30.10;18.40;;;;;;;7.35;100.00;100730.53;5073743;28;20538;-74
2023/04/28 05:16:24;;;;;;;39.03;21.47;;;;;;;7.60;100.00;100741.53;5075015;28;20064;-73
2023/04/28 05:18:50;;;;;;;34.15;21.52;;;;;;;7.80;100.00;100759.41;5073768;28;20283;-73
2023/04/28 05:24:37;;;;;;;35.53;19.52;;;;;;;7.89;100.00;100755.56;5074891;28;20043;-74
2023/04/28 05:27:02;;;;;;;35.45;20.42;;;;;;;7.99;100.00;100766.66;5073667;28;20033;-74
2023/04/28 05:29:28;;;;;;;33.78;18.73;;;;;;;7.95;100.00;100755.59;5074224;28;20374;-73
2023/04/28 05:31:53;;;;;;;33.03;20.13;;;;;;;7.99;100.00;100758.69;5073508;28;20041;-74
2023/04/28 05:34:18;;;;;;;31.45;20.15;;;;;;;8.02;100.00;100760.94;5056504;28;20055;-74
2023/04/28 05:40:06;;;;;;;34.83;18.55;;;;;;;7.97;100.00;100742.91;5074817;28;20039;-74
2023/04/28 05:42:32;;;;;;;30.70;18.80;;;;;;;8.04;100.00;100754.41;5074147;28;20024;-74
2023/04/28 05:48:20;;;;;;;32.35;20.80;;;;;;;8.27;100.00;100764.72;5074726;28;20067;-74
2023/04/28 05:50:45;;;;;;;35.53;19.52;;;;;;;8.32;100.00;100767.59;5073134;28;20040;-74
2023/04/28 05:53:10;;;;;;;31.85;19.45;;;;;;;8.42;100.00;100771.75;5073801;28;20059;-74
2023/04/28 05:55:36;;;;;;;36.73;21.77;;;;;;;8.49;100.00;100776.06;5055173;28;20489;-74
2023/04/28 05:58:02;;;;;;;32.08;19.77;;;;;;;8.47;100.00;100767.47;5055714;28;20271;-74
2023/04/28 06:00:28;;;;;;;31.10;19.13;;;;;;;8.61;100.00;100763.78;5055860;28;20039;-75
2023/04/28 06:02:53;;;;;;;28.88;19.58;;;;;;;8.57;100.00;100743.91;5055178;28;20051;-74
2023/04/28 06:05:18;;;;;;;29.58;19.60;;;;;;;8.75;100.00;100755.81;5055910;28;20062;-73
2023/04/28 06:07:44;;;;;;;28.92;18.67;;;;;;;8.73;100.00;100737.38;5055260;28;20033;-74
2023/04/28 06:13:31;;;;;;;32.08;21.27;;;;;;;8.96;100.00;100758.28;5073636;28;20110;-76
2023/04/28 06:15:57;;;;;;;30.17;18.08;;;;;;;8.95;100.00;100745.97;5055705;28;20084;-76
2023/04/28 06:21:44;;;;;;;30.58;18.02;;;;;;;9.16;100.00;100764.44;5073658;28;20039;-74
2023/04/28 06:24:10;;;;;;;28.33;18.63;;;;;;;9.20;100.00;100762.97;5073601;28;20060;-74
2023/04/28 06:26:35;;;;;;;28.75;18.52;;;;;;;9.25;100.00;100765.88;5073321;28;20036;-75
2023/04/28 06:29:01;;;;;;;34.47;18.55;;;;;;;9.21;100.00;100764.63;5072734;28;20086;-75
2023/04/28 06:31:27;;;;;;;32.22;20.17;;;;;;;9.02;100.00;100756.66;5073275;28;20029;-75
2023/04/28 06:33:53;;;;;;;29.10;18.95;;;;;;;8.93;100.00;100764.00;5072181;28;20045;-75
2023/04/28 06:36:18;;;;;;;28.52;18.85;;;;;;;8.78;100.00;100737.56;5073312;28;20420;-75
2023/04/28 06:38:44;;;;;;;30.52;19.17;;;;;;;8.85;100.00;100762.38;5054539;28;20103;-75
2023/04/28 06:41:10;;;;;;;31.98;20.77;;;;;;;8.83;100.00;100760.94;5072925;28;20048;-75
2023/04/28 06:43:36;;;;;;;33.95;22.00;;;;;;;8.78;100.00;100750.06;5055234;28;20067;-74
2023/04/28 06:46:01;;;;;;;30.40;20.50;;;;;;;8.86;100.00;100764.03;5054974;28;20116;-75
2023/04/28 06:48:27;;;;;;;34.20;20.30;;;;;;;8.87;100.00;100756.84;5055252;28;20170;-75
2023/04/28 06:54:15;;;;;;;37.17;20.60;;;;;;;8.96;100.00;100745.78;5072962;28;20455;-75
2023/04/28 06:56:41;;;;;;;34.80;20.27;;;;;;;9.16;100.00;100751.09;5072839;28;20027;-74
2023/04/28 06:59:07;;;;;;;32.55;21.55;;;;;;;8.97;100.00;100711.94;5054565;28;20036;-75
2023/04/28 07:04:54;;;;;;;29.25;19.83;;;;;;;9.21;100.00;100734.44;5073287;28;20118;-75
2023/04/28 07:07:20;;;;;;;33.70;21.92;;;;;;;9.22;100.00;100730.75;5072819;28;20032;-76
2023/04/28 07:09:45;;;;;;;33.42;20.23;;;;;;;9.34;100.00;100746.97;5071957;28;20045;-76
2023/04/28 07:12:12;;;;;;;34.70;20.73;;;;;;;9.37;100.00;100749.22;5038169;28;20469;-75
2023/04/28 07:14:38;;;;;;;32.97;20.75;;;;;;;9.42;100.00;100736.88;5054605;28;20060;-75
2023/04/28 07:17:04;;;;;;;35.85;20.58;;;;;;;9.54;100.00;100729.88;5054335;28;20465;-75
2023/04/28 07:22:51;;;;;;;31.75;19.92;;;;;;;9.84;100.00;100740.88;5071902;28;20039;-76
2023/04/28 07:25:16;;;;;;;30.77;20.25;;;;;;;9.90;100.00;100736.53;5054489;28;20036;-76
2023/04/28 07:31:04;;;;;;;27.50;21.48;;;;;;;10.11;100.00;100736.22;5072642;28;20102;-76
2023/04/28 07:33:30;;;;;;;34.33;21.63;;;;;;;10.20;100.00;100744.81;5071769;28;20487;-76
2023/04/28 07:35:55;;;;;;;30.35;19.77;;;;;;;10.17;100.00;100742.56;5054486;28;20465;-76
2023/04/28 07:41:43;;;;;;;28.63;18.92;;;;;;;10.39;100.00;100756.44;5072678;28;20054;-76
2023/04/28 07:44:09;;;;;;;29.17;18.38;;;;;;;10.34;100.00;100750.91;5054246;28;20024;-75
2023/04/28 07:46:35;;;;;;;25.88;17.52;;;;;;;10.38;100.00;100757.47;5071029;28;20374;-75
2023/04/28 07:49:01;;;;;;;35.15;22.45;;;;;;;10.41;100.00;100757.06;5053914;28;20028;-76
2023/04/28 07:54:50;;;;;;;36.40;23.88;;;;;;;10.35;100.00;100758.72;5072102;28;20059;-75
2023/04/28 07:57:15;;;;;;;31.52;21.52;;;;;;;10.37;100.00;100747.81;5053977;28;20033;-76
2023/04/28 07:59:41;;;;;;;36.03;21.42;;;;;;;10.43;100.00;100755.00;5053486;28;20047;-76
2023/04/28 08:02:06;;;;;;;43.83;22.20;;;;;;;10.43;100.00;100750.47;5054383;28;20025;-76
2023/04/28 08:04:33;;;;;;;34.58;23.55;;;;;;;10.53;100.00;100753.47;5053314;28;20063;-76
2023/04/28 08:10:21;;;;;;;35.67;23.80;;;;;;;10.54;100.00;100752.44;5072118;28;20106;-76
2023/04/28 08:12:48;;;;;;;36.10;24.50;;;;;;;10.63;100.00;100742.31;5053900;28;20024;-76
2023/04/28 08:15:13;;;;;;;36.05;21.80;;;;;;;10.76;100.00;100738.72;5071622;28;20028;-75
2023/04/28 08:17:39;;;;;;;32.80;21.85;;;;;;;11.01;100.00;100757.47;5053227;28;20381;-76
2023/04/28 08:20:05;;;;;;;31.10;20.15;;;;;;;11.01;100.00;100744.91;5053917;28;20029;-76
2023/04/28 08:22:31;;;;;;;29.85;21.38;;;;;;;10.97;100.00;100745.53;5052692;28;20047;-76
2023/04/28 08:24:56;;;;;;;34.28;25.48;;;;;;;10.89;100.00;100759.19;5071545;28;20111;-77
2023/04/28 08:27:22;;;;;;;35.22;22.33;;;;;;;10.82;100.00;100753.91;5053505;28;20020;-75
2023/04/28 08:29:48;;;;;;;37.28;26.35;;;;;;;10.78;100.00;100750.03;5053082;28;20044;-76
2023/04/28 08:32:13;;;;;;;36.75;25.42;;;;;;;10.88;100.00;100745.00;5053580;28;20024;-75
2023/04/28 08:34:43;;;;;;;36.90;26.40;;;;;;;10.92;100.00;100748.88;5055846;28;20464;-76
2023/04/28 08:37:08;;;;;;;35.80;23.27;;;;;;;11.03;100.00;100755.38;5057255;28;20486;-76
2023/04/28 08:39:34;;;;;;;37.65;24.42;;;;;;;11.10;100.00;100761.50;5056793;28;20116;-75
2023/04/28 08:42:04;;;;;;;37.85;27.48;;;;;;;11.07;100.00;100753.91;5074128;28;20123;-76
2023/04/28 08:44:39;;;;;;;40.30;25.08;;;;;;;11.11;100.00;100752.41;5074949;28;20029;-74
2023/04/28 08:47:14;;;;;;;39.05;25.85;;;;;;;11.17;100.00;100743.50;5056136;28;20155;-74
2023/04/28 08:49:40;;;;;;;41.17;26.00;;;;;;;11.38;100.00;100753.00;5039565;28;20041;-76
2023/04/28 08:55:27;;;;;;;36.67;25.45;;;;;;;11.54;100.00;100757.75;5074650;28;20044;-76
2023/04/28 08:57:53;;;;;;;33.65;22.52;;;;;;;11.57;100.00;100757.34;5074567;28;20032;-76
2023/04/28 09:00:20;;;;;;;38.83;24.40;;;;;;;11.62;100.00;100759.34;5056205;28;20041;-75
2023/04/28 09:06:08;;;;;;;36.45;24.30;;;;;;;11.99;100.00;100766.34;5075149;28;20043;-75
2023/04/28 09:08:33;;;;;;;31.98;23.80;;;;;;;11.91;100.00;100744.41;5056582;28;20032;-75
2023/04/28 09:11:07;;;;;;;35.33;22.10;;;;;;;12.03;100.00;100762.16;5056199;28;20031;-75
2023/04/28 09:16:57;;;;;;;32.33;22.20;;;;;;;12.30;100.00;100751.91;5075161;28;20488;-75
2023/04/28 09:19:22;;;;;;;31.98;21.23;;;;;;;12.50;100.00;100751.63;5039544;28;20033;-76
2023/04/28 09:21:52;;;;;;;29.13;20.83;;;;;;;12.49;100.00;100755.38;5056321;28;20043;-76
2023/04/28 09:24:42;;;;;;;31.25;22.50;;;;;;;12.37;100.00;100757.19;5055499;28;20039;-74
2023/04/28 09:27:10;;;;;;;31.30;21.23;;;;;;;12.37;100.00;100757.19;5040167;28;20040;-73
2023/04/28 09:29:37;;;;;;;29.63;20.70;;;;;;;12.21;100.00;100739.06;5055725;28;20234;-75
2023/04/28 09:32:17;;;;;;;29.77;20.88;;;;;;;12.46;100.00;100755.81;5056009;28;20456;-75
2023/04/28 09:34:46;;;;;;;30.80;20.73;;;;;;;12.58;100.00;100754.00;5073923;28;20032;-75
2023/04/28 09:37:25;;;;;;;30.17;19.77;;;;;;;12.65;100.00;100754.69;5055333;28;20040;-75
2023/04/28 09:43:27;;;;;;;36.47;22.17;;;;;;;12.88;100.00;100758.47;5074704;28;20174;-76
2023/04/28 09:45:53;;;;;;;36.33;21.95;;;;;;;12.87;100.00;100744.25;5073554;28;20029;-75
2023/04/28 09:48:40;;;;;;;34.03;21.10;;;;;;;12.98;100.00;100764.09;5055156;28;20044;-75
2023/04/28 09:51:06;;;;;;;32.88;19.73;;;;;;;13.05;100.00;100764.81;5072399;28;20410;-74
2023/04/28 09:53:34;;;;;;;31.40;20.65;;;;;;;13.06;100.00;100755.72;5039306;28;20036;-74
2023/04/28 09:56:02;;;;;;;29.63;19.65;;;;;;;13.16;100.00;100766.69;5055258;28;20040;-76
2023/04/28 09:58:28;;;;;;;34.88;23.15;;;;;;;13.19;100.00;100766.25;5055783;28;20472;-75
2023/04/28 10:00:56;;;;;;;34.30;20.85;;;;;;;13.25;100.00;100761.81;5055129;28;20695;-76
2023/04/28 10:03:23;;;;;;;30.42;19.13;;;;;;;13.25;100.00;100753.75;5055562;28;20029;-75
2023/04/28 10:05:50;;;;;;;29.38;20.17;;;;;;;13.18;100.00;100769.16;5055547;28;20028;-76
2023/04/28 10:08:18;;;;;;;29.25;19.23;;;;;;;13.18;100.00;100769.16;5022350;28;20388;-75
2023/04/28 10:10:44;;;;;;;28.50;20.10;;;;;;;13.18;100.00;100764.63;5055545;28;20112;-76
2023/04/28 10:13:10;;;;;;;30.77;21.17;;;;;;;13.16;100.00;100757.81;5054806;28;20131;-75
2023/04/28 10:15:36;;;;;;;33.90;22.45;;;;;;;13.20;100.00;100762.50;5055314;28;20039;-75
2023/04/28 10:18:04;;;;;;;31.95;22.05;;;;;;;13.26;100.00;100764.25;5073321;28;20450;-75
2023/04/28 10:24:13;;;;;;;30.98;21.42;;;;;;;13.41;100.00;100763.81;5073664;28;20043;-76
2023/04/28 10:27:08;;;;;;;35.40;23.58;;;;;;;13.37;100.00;100756.44;5072240;28;20041;-75
2023/04/28 10:29:34;;;;;;;37.20;24.88;;;;;;;13.24;100.00;100747.56;5055357;28;20028;-76
2023/04/28 10:32:27;;;;;;;44.97;27.67;;;;;;;13.41;100.00;100766.47;5054738;28;20060;-76
2023/04/28 10:35:20;;;;;;;43.60;28.10;;;;;;;13.44;100.00;100765.19;5060979;28;20068;-75
2023/04/28 10:38:08;;;;;;;47.20;29.20;;;;;;;13.50;100.00;100764.25;5054764;28;20052;-75
2023/04/28 10:40:42;;;;;;;51.55;31.98;;;;;;;13.51;100.00;100763.19;5073063;28;20025;-75
2023/04/28 10:43:09;;;;;;;52.70;32.63;;;;;;;13.54;100.00;100765.41;5072989;28;20711;-74
2023/04/28 10:45:52;;;;;;;53.20;34.17;;;;;;;13.65;100.00;100759.22;5054541;28;20041;-75
2023/04/28 10:48:19;;;;;;;57.60;35.75;;;;;;;13.77;100.00;100759.19;5072852;28;20044;-74
2023/04/28 10:51:15;;;;;;;57.63;36.10;;;;;;;13.88;100.00;100756.50;5072167;28;20032;-75
2023/04/28 10:57:14;;;;;;;54.70;36.70;;;;;;;13.89;100.00;100741.19;5071698;28;20511;-75
2023/04/28 10:59:39;;;;;;;55.78;34.55;;;;;;;13.98;100.00;100742.44;5072909;28;20078;-76
2023/04/28 11:02:37;;;;;;;55.25;35.45;;;;;;;14.07;100.00;100749.06;5072111;28;20042;-75
2023/04/28 11:05:10;;;;;;;49.90;33.53;;;;;;;14.24;100.00;100746.44;5054930;28;20024;-75
2023/04/28 11:07:36;;;;;;;51.13;33.40;;;;;;;14.38;100.00;100750.44;5072805;28;20032;-75
2023/04/28 11:10:01;;;;;;;50.00;32.25;;;;;;;14.49;100.00;100741.56;5071838;28;20481;-75
2023/04/28 11:12:27;;;;;;;50.90;33.05;;;;;;;14.47;100.00;100742.84;5054850;28;20115;-75
2023/04/28 11:14:53;;;;;;;41.40;30.35;;;;;;;14.49;100.00;100738.03;5053782;28;20413;-75
2023/04/28 11:17:39;;;;;;;43.45;30.42;;;;;;;14.43;100.00;100745.19;5072285;28;20031;-76
2023/04/28 11:20:11;;;;;;;41.05;28.92;;;;;;;14.35;100.00;100726.72;5054495;28;20028;-75
2023/04/28 11:22:37;;;;;;;42.65;30.20;;;;;;;14.26;100.00;100712.03;5048874;28;20118;-74
2023/04/28 11:25:02;;;;;;;39.72;28.75;;;;;;;14.46;100.00;100725.91;5072439;28;20044;-73
2023/04/28 11:27:30;;;;;;;39.35;26.33;;;;;;;14.54;100.00;100740.81;5054095;28;20103;-74
2023/04/28 11:29:55;;;;;;;38.08;27.52;;;;;;;14.36;100.00;100709.53;5054579;28;20366;-74
2023/04/28 11:32:35;;;;;;;37.85;27.63;;;;;;;14.61;100.00;100729.88;5054752;28;20078;-74
2023/04/28 11:35:03;;;;;;;37.08;26.60;;;;;;;14.45;100.00;100705.41;5050710;28;20611;-75
2023/04/28 11:37:28;;;;;;;33.30;25.63;;;;;;;14.50;100.00;100720.84;5072101;28;20020;-74
2023/04/28 11:39:53;;;;;;;33.87;25.90;;;;;;;14.47;100.00;100724.84;5053610;28;20477;-74
2023/04/28 11:42:19;;;;;;;35.80;27.67;;;;;;;14.50;100.00;100724.34;5072039;28;20263;-74
2023/04/28 11:44:52;;;;;;;33.53;27.08;;;;;;;14.57;100.00;100727.69;5071640;28;20477;-75
2023/04/28 11:47:32;;;;;;;35.63;26.30;;;;;;;14.60;100.00;100737.16;5071901;28;20489;-75
2023/04/28 11:49:57;;;;;;;38.10;26.55;;;;;;;14.43;100.00;100728.22;5072202;28;20032;-75
2023/04/28 11:52:23;;;;;;;37.72;27.42;;;;;;;14.49;100.00;100743.41;5053561;28;20801;-76
2023/04/28 11:54:59;;;;;;;36.78;26.80;;;;;;;14.31;100.00;100733.66;5072218;28;20070;-75
2023/04/28 11:57:25;;;;;;;37.72;25.95;;;;;;;14.14;100.00;100740.84;5053502;28;20095;-75
2023/04/28 11:59:51;;;;;;;34.20;25.05;;;;;;;14.14;100.00;100763.16;5053811;28;20021;-75
2023/04/28 12:02:26;;;;;;;33.35;23.20;;;;;;;13.99;100.00;100760.19;5053861;28;20469;-74
2023/04/28 12:04:52;;;;;;;35.42;25.25;;;;;;;13.88;100.00;100753.81;5053215;28;20049;-75
2023/04/28 12:07:18;;;;;;;31.40;22.00;;;;;;;13.89;100.00;100765.38;5053782;28;20036;-74
2023/04/28 12:10:10;;;;;;;33.28;23.67;;;;;;;13.75;100.00;100758.63;5074436;28;20559;-75
2023/04/28 12:12:35;;;;;;;32.50;22.08;;;;;;;13.61;100.00;100758.88;5061184;28;20123;-75
2023/04/28 12:15:05;;;;;;;32.35;22.17;;;;;;;13.63;100.00;100756.78;5040687;28;20128;-75
2023/04/28 12:17:36;;;;;;;29.38;20.73;;;;;;;13.53;100.00;100742.28;5074668;28;20052;-76
2023/04/28 12:20:05;;;;;;;29.40;20.35;;;;;;;13.73;100.00;100769.59;5075359;28;20033;-75
2023/04/28 12:22:41;;;;;;;28.85;20.90;;;;;;;13.65;100.00;100764.59;5074637;28;20051;-76
2023/04/28 12:25:12;;;;;;;27.52;19.60;;;;;;;13.66;100.00;100771.59;5075014;28;20031;-75
2023/04/28 12:27:39;;;;;;;27.98;19.83;;;;;;;13.50;100.00;100754.31;5075271;28;20469;-75
2023/04/28 12:30:28;;;;;;;24.33;17.13;;;;;;;13.67;100.00;100775.94;5040247;28;20111;-75
2023/04/28 12:32:55;;;;;;;24.02;17.67;;;;;;;13.62;100.00;100773.13;5057091;28;20116;-75
2023/04/28 12:35:24;;;;;;;26.50;18.15;;;;;;;13.60;100.00;100789.50;5074329;28;20401;-75
2023/04/28 12:37:49;;;;;;;16.05;12.05;;;;;;;13.23;100.00;100762.03;5075062;28;20025;-75